Time;durP1;ratioP1;P1;durP2;ratioP2;P2;SDS_P1;SDS_P2;PMS_P1;PMS_P2;Temp;Humidity;BMP_temperature;BMP_pressure;BME280_temperature;BME280_humidity;BME280_pressure;Samples;Min_cycle;Max_cycle;Signal;HPM_P1;HPM_P2
2023/01/09 00:00:46;;;;;;;174.27;73.32;;;6.10;99.90;;;;;;5096996;28;20027;-78
2023/01/09 00:03:12;;;;;;;161.13;69.45;;;6.10;99.90;;;;;;5095473;28;20123;-77
2023/01/09 00:05:37;;;;;;;137.80;60.67;;;6.10;99.90;;;;;;5096990;28;20581;-77
2023/01/09 00:08:03;;;;;;;131.02;55.75;;;6.10;99.90;;;;;;5096877;28;20353;-77
2023/01/09 00:10:29;;;;;;;140.63;60.78;;;6.00;99.90;;;;;;5093501;28;20382;-77
2023/01/09 00:12:54;;;;;;;131.18;54.75;;;6.00;99.90;;;;;;5086227;28;20111;-77
2023/01/09 00:15:20;;;;;;;110.57;49.20;;;6.00;99.90;;;;;;5076081;28;20023;-78
2023/01/09 00:17:46;;;;;;;107.10;46.97;;;6.00;99.90;;;;;;5074879;28;20017;-77
2023/01/09 00:20:13;;;;;;;102.28;43.92;;;5.90;99.90;;;;;;5076334;28;20044;-77
2023/01/09 00:22:39;;;;;;;111.25;47.35;;;5.90;99.90;;;;;;5076232;28;20029;-79
2023/01/09 00:25:06;;;;;;;112.43;47.50;;;6.00;99.90;;;;;;5076189;28;20031;-77
2023/01/09 00:27:33;;;;;;;102.78;44.50;;;5.90;99.90;;;;;;5074956;28;20028;-78
2023/01/09 00:29:59;;;;;;;107.38;45.35;;;5.90;99.90;;;;;;5074983;28;20055;-78
2023/01/09 00:32:25;;;;;;;109.25;48.25;;;5.90;99.90;;;;;;5076051;28;20059;-77
2023/01/09 00:34:52;;;;;;;110.85;46.70;;;5.90;99.90;;;;;;5075876;28;20016;-78
2023/01/09 00:37:17;;;;;;;102.50;45.85;;;5.90;99.90;;;;;;5075681;28;20116;-78
2023/01/09 00:39:43;;;;;;;107.90;48.10;;;5.80;99.90;;;;;;5076510;28;20060;-78
2023/01/09 00:42:15;;;;;;;127.57;53.47;;;5.80;99.90;;;;;;5075929;28;20109;-77
2023/01/09 00:44:46;;;;;;;121.30;51.75;;;5.80;99.90;;;;;;5075844;28;20364;-78
2023/01/09 00:47:20;;;;;;;117.20;49.00;;;5.70;99.90;;;;;;5075204;28;21440;-78
2023/01/09 00:49:47;;;;;;;118.60;49.30;;;5.70;99.90;;;;;;5074808;28;20032;-78
2023/01/09 00:52:13;;;;;;;123.85;52.83;;;5.70;99.90;;;;;;5074945;28;20073;-78
2023/01/09 00:54:41;;;;;;;104.97;46.97;;;5.60;99.90;;;;;;5074982;28;20020;-78
2023/01/09 00:57:10;;;;;;;109.90;47.42;;;5.60;99.90;;;;;;5073920;28;20035;-78
2023/01/09 00:59:36;;;;;;;109.28;50.50;;;5.60;99.90;;;;;;5075517;28;20013;-77
2023/01/09 01:02:01;;;;;;;128.63;54.75;;;5.50;99.90;;;;;;5074563;28;20500;-77
2023/01/09 01:09:55;;;;;;;123.97;51.00;;;5.40;99.90;;;;;;5074627;28;20404;-79
2023/01/09 01:12:21;;;;;;;122.03;45.50;;;5.40;99.90;;;;;;5073438;28;20032;-77
2023/01/09 01:14:47;;;;;;;113.22;42.90;;;5.40;99.90;;;;;;5074819;28;20035;-78
2023/01/09 01:17:12;;;;;;;120.18;42.95;;;5.40;99.90;;;;;;5074688;28;20143;-77
2023/01/09 01:19:38;;;;;;;106.65;41.63;;;5.40;99.90;;;;;;5074472;28;20064;-76
2023/01/09 01:22:04;;;;;;;114.40;42.47;;;5.30;99.90;;;;;;5074500;28;20107;-77
2023/01/09 01:24:30;;;;;;;108.70;44.08;;;5.30;99.90;;;;;;5073264;28;20489;-78
2023/01/09 01:26:56;;;;;;;89.20;38.22;;;5.30;99.90;;;;;;5075169;28;20035;-76
2023/01/09 01:29:22;;;;;;;85.53;36.20;;;5.30;99.90;;;;;;5074501;28;20019;-78
2023/01/09 01:31:48;;;;;;;83.70;33.60;;;5.20;99.90;;;;;;5073601;28;20016;-78
2023/01/09 01:34:13;;;;;;;80.78;29.95;;;5.30;99.90;;;;;;5074871;28;20024;-77
2023/01/09 01:36:39;;;;;;;76.75;30.20;;;5.20;99.90;;;;;;5073763;28;20510;-78
2023/01/09 01:39:05;;;;;;;69.75;32.10;;;5.30;99.90;;;;;;5075092;28;20074;-78
2023/01/09 01:41:30;;;;;;;84.95;33.95;;;5.30;99.90;;;;;;5074420;28;20094;-78
2023/01/09 01:44:03;;;;;;;109.35;43.28;;;5.20;99.90;;;;;;5074385;28;20345;-78
2023/01/09 01:46:31;;;;;;;106.82;43.17;;;5.20;99.90;;;;;;5072717;28;20027;-76
2023/01/09 01:49:06;;;;;;;101.07;42.60;;;5.20;99.90;;;;;;5070126;28;20111;-77
2023/01/09 01:51:36;;;;;;;71.88;31.27;;;5.20;99.90;;;;;;5073896;28;20028;-78
2023/01/09 01:54:07;;;;;;;78.35;31.05;;;5.20;99.90;;;;;;5074057;28;20024;-78
2023/01/09 01:56:52;;;;;;;75.57;30.95;;;5.20;99.90;;;;;;5073826;28;20022;-78
2023/01/09 01:59:19;;;;;;;69.68;29.45;;;5.20;99.90;;;;;;5073563;28;20028;-78
2023/01/09 02:01:49;;;;;;;80.82;31.55;;;5.10;99.90;;;;;;5073570;28;20417;-78
2023/01/09 02:04:15;;;;;;;79.55;32.25;;;5.20;99.90;;;;;;5073282;28;20078;-78
2023/01/09 02:06:42;;;;;;;78.25;33.65;;;5.10;99.90;;;;;;5073794;28;20052;-78
2023/01/09 02:09:12;;;;;;;80.57;34.60;;;5.10;99.90;;;;;;5074000;28;20034;-78
2023/01/09 02:11:44;;;;;;;83.78;33.92;;;5.10;99.90;;;;;;5073792;28;20478;-77
2023/01/09 02:14:10;;;;;;;88.82;37.30;;;5.00;99.90;;;;;;5073447;28;20025;-78
2023/01/09 02:17:00;;;;;;;82.13;34.67;;;5.00;99.90;;;;;;5072117;28;20024;-79
2023/01/09 02:19:31;;;;;;;79.80;34.88;;;5.00;99.90;;;;;;5072991;28;20086;-78
2023/01/09 02:22:36;;;;;;;103.55;45.20;;;5.00;99.90;;;;;;5073362;28;20379;-77
2023/01/09 02:25:29;;;;;;;106.97;45.42;;;5.00;99.90;;;;;;5061396;28;20119;-77
2023/01/09 02:28:19;;;;;;;148.38;56.70;;;5.00;99.90;;;;;;5073033;28;20016;-77
2023/01/09 02:31:09;;;;;;;90.07;38.33;;;5.00;99.90;;;;;;5072053;28;20025;-78
2023/01/09 02:34:08;;;;;;;83.75;35.05;;;5.00;99.90;;;;;;5067285;28;20025;-80
2023/01/09 02:36:41;;;;;;;78.03;32.67;;;5.00;99.90;;;;;;5073377;28;20028;-77
2023/01/09 02:39:10;;;;;;;70.97;31.17;;;5.00;99.90;;;;;;5072218;28;20460;-78
2023/01/09 02:41:49;;;;;;;76.63;32.70;;;5.10;99.90;;;;;;5072086;28;20043;-77
2023/01/09 02:44:20;;;;;;;91.07;36.25;;;5.10;99.90;;;;;;5072948;28;20054;-78
2023/01/09 02:46:46;;;;;;;111.72;46.05;;;5.10;99.90;;;;;;5073420;28;20036;-77
2023/01/09 02:49:15;;;;;;;108.63;42.30;;;5.10;99.90;;;;;;5071978;28;20483;-77
2023/01/09 02:51:53;;;;;;;95.68;41.28;;;5.10;99.90;;;;;;5073132;28;20024;-78
2023/01/09 02:54:50;;;;;;;88.00;39.83;;;5.10;99.90;;;;;;5073222;28;20025;-78
2023/01/09 02:57:52;;;;;;;92.95;40.45;;;5.00;99.90;;;;;;5046401;28;20094;-78
2023/01/09 03:00:30;;;;;;;92.70;42.72;;;5.00;99.90;;;;;;5073299;28;20024;-77
2023/01/09 03:03:16;;;;;;;103.03;45.30;;;5.00;99.90;;;;;;5073044;28;20067;-79
2023/01/09 03:05:44;;;;;;;103.07;46.75;;;5.00;99.90;;;;;;5069102;28;20402;-79
2023/01/09 03:08:15;;;;;;;110.65;46.33;;;5.00;99.90;;;;;;5073169;28;20024;-79
2023/01/09 03:10:57;;;;;;;106.00;46.10;;;5.00;99.90;;;;;;5073312;28;20073;-77
2023/01/09 03:13:25;;;;;;;92.90;42.63;;;4.90;99.90;;;;;;5071735;28;20051;-77
2023/01/09 03:15:53;;;;;;;89.28;40.10;;;5.00;99.90;;;;;;5073006;28;20021;-79
2023/01/09 03:18:23;;;;;;;111.22;46.47;;;5.00;99.90;;;;;;5072558;28;20366;-78
2023/01/09 03:20:50;;;;;;;95.40;43.17;;;5.00;99.90;;;;;;5073296;28;20068;-77
2023/01/09 03:23:16;;;;;;;98.40;42.58;;;5.00;99.90;;;;;;5071576;28;20094;-78
2023/01/09 03:25:41;;;;;;;96.82;41.53;;;5.00;99.90;;;;;;5072328;28;20455;-78
2023/01/09 03:28:19;;;;;;;91.03;42.13;;;4.90;99.90;;;;;;5071688;28;20028;-78
2023/01/09 03:30:45;;;;;;;85.22;38.15;;;5.00;99.90;;;;;;5071490;28;20356;-80
2023/01/09 03:33:11;;;;;;;80.05;35.67;;;5.00;99.90;;;;;;5072691;28;20032;-78
2023/01/09 03:35:37;;;;;;;82.95;35.47;;;5.00;99.90;;;;;;5072935;28;20028;-79
2023/01/09 03:38:02;;;;;;;81.82;36.20;;;5.00;99.90;;;;;;5072970;28;20067;-78
2023/01/09 03:40:28;;;;;;;79.70;35.40;;;5.00;99.90;;;;;;5071335;28;20048;-77
2023/01/09 03:42:54;;;;;;;98.80;38.50;;;5.00;99.90;;;;;;5072570;28;20107;-78
2023/01/09 03:45:19;;;;;;;106.75;41.97;;;5.00;99.90;;;;;;5071839;28;20028;-77
2023/01/09 03:47:45;;;;;;;99.97;41.35;;;5.00;99.90;;;;;;5071807;28;20482;-78
2023/01/09 03:50:11;;;;;;;92.32;38.90;;;5.00;99.90;;;;;;5072863;28;20031;-79
2023/01/09 03:52:37;;;;;;;91.38;37.10;;;5.00;99.90;;;;;;5073720;28;20107;-78
2023/01/09 03:55:03;;;;;;;86.93;36.38;;;5.10;99.90;;;;;;5076453;28;20048;-78
2023/01/09 03:57:28;;;;;;;77.50;33.20;;;5.10;99.90;;;;;;5077082;28;20462;-78
2023/01/09 03:59:54;;;;;;;58.88;28.27;;;5.10;99.90;;;;;;5075583;28;20367;-78
2023/01/09 04:02:20;;;;;;;57.60;24.58;;;5.10;99.90;;;;;;5076202;28;20017;-78
2023/01/09 04:04:45;;;;;;;57.65;22.70;;;5.20;99.90;;;;;;5076751;28;20408;-78
2023/01/09 04:07:11;;;;;;;50.28;20.85;;;5.30;99.90;;;;;;5076222;28;20024;-79
2023/01/09 04:09:37;;;;;;;46.53;19.33;;;5.40;99.90;;;;;;5075410;28;20017;-77
2023/01/09 04:12:02;;;;;;;42.55;19.48;;;5.50;99.90;;;;;;5076594;28;20048;-77
2023/01/09 04:14:28;;;;;;;43.67;20.25;;;5.50;99.90;;;;;;5075863;28;20020;-78
2023/01/09 04:16:54;;;;;;;50.70;20.25;;;5.50;99.90;;;;;;5075327;28;20104;-78
2023/01/09 04:19:19;;;;;;;42.40;18.67;;;5.60;99.90;;;;;;5074327;28;20041;-77
2023/01/09 04:21:45;;;;;;;32.40;15.63;;;5.60;99.90;;;;;;5074614;28;20020;-78
2023/01/09 04:24:11;;;;;;;35.65;15.82;;;5.70;99.90;;;;;;5075213;28;20024;-78
2023/01/09 04:26:36;;;;;;;34.15;15.77;;;5.70;99.90;;;;;;5075839;28;20042;-77
2023/01/09 04:29:02;;;;;;;30.83;15.18;;;5.80;99.90;;;;;;5075343;28;20486;-77
2023/01/09 04:31:28;;;;;;;31.52;13.57;;;5.80;99.90;;;;;;5075406;28;20036;-77
2023/01/09 04:33:53;;;;;;;28.65;12.75;;;5.90;99.90;;;;;;5074399;28;20025;-78
2023/01/09 04:36:19;;;;;;;26.20;12.05;;;5.90;99.90;;;;;;5075964;28;20028;-77
2023/01/09 04:38:45;;;;;;;33.83;14.27;;;5.90;99.90;;;;;;5075737;28;20024;-79
2023/01/09 04:41:47;;;;;;;40.50;16.80;;;5.90;99.90;;;;;;5074157;28;20474;-78
2023/01/09 04:43:56;;;;;;;37.17;17.80;;;5.90;99.90;;;;;;5074836;28;20539;-78
2023/01/09 04:46:22;;;;;;;36.20;16.17;;;5.90;99.90;;;;;;5073327;28;20163;-77
2023/01/09 04:48:47;;;;;;;32.70;15.82;;;5.90;99.90;;;;;;5075375;28;20348;-78
2023/01/09 04:51:13;;;;;;;33.10;14.98;;;5.90;99.90;;;;;;5073926;28;20031;-79
2023/01/09 04:53:39;;;;;;;44.90;19.05;;;5.90;99.90;;;;;;5073679;28;20451;-78
2023/01/09 04:56:05;;;;;;;31.23;14.95;;;5.90;99.90;;;;;;5082236;28;20129;-79
2023/01/09 04:58:30;;;;;;;31.52;15.43;;;5.80;99.90;;;;;;5074093;28;20023;-77
2023/01/09 05:00:56;;;;;;;33.55;15.18;;;5.80;99.90;;;;;;5075126;28;20031;-78
2023/01/09 05:03:21;;;;;;;31.50;15.60;;;5.80;99.90;;;;;;5074754;28;20417;-79
2023/01/09 05:05:47;;;;;;;66.07;26.15;;;5.80;99.90;;;;;;5072901;28;20031;-77
2023/01/09 05:08:13;;;;;;;30.83;14.98;;;5.80;99.90;;;;;;5074813;28;20036;-77
2023/01/09 05:10:38;;;;;;;30.25;15.05;;;5.80;99.90;;;;;;5073670;28;20039;-79
2023/01/09 05:13:04;;;;;;;44.03;16.15;;;5.90;99.90;;;;;;5075182;28;20028;-78
2023/01/09 05:15:30;;;;;;;44.75;17.60;;;5.90;99.90;;;;;;5074608;28;20458;-78
2023/01/09 05:17:55;;;;;;;53.70;20.95;;;5.90;99.90;;;;;;5073286;28;20048;-79
2023/01/09 05:20:21;;;;;;;50.08;21.13;;;6.00;99.90;;;;;;5074875;28;20086;-78
2023/01/09 05:22:47;;;;;;;60.63;22.02;;;6.00;99.90;;;;;;5074757;28;20036;-79
2023/01/09 05:25:12;;;;;;;55.03;19.90;;;6.00;99.90;;;;;;5074163;28;20044;-79
2023/01/09 05:27:38;;;;;;;52.70;20.95;;;6.00;99.90;;;;;;5075215;28;20417;-78
2023/01/09 05:30:04;;;;;;;46.03;18.98;;;6.00;99.90;;;;;;5073563;28;20029;-78
2023/01/09 05:32:30;;;;;;;63.55;23.88;;;6.10;99.90;;;;;;5074380;28;20035;-77
2023/01/09 05:34:56;;;;;;;62.58;25.40;;;6.10;99.90;;;;;;5073774;28;20134;-78
2023/01/09 05:37:21;;;;;;;59.33;25.67;;;6.10;99.90;;;;;;5074635;28;20023;-79
2023/01/09 05:39:47;;;;;;;62.72;26.08;;;6.10;99.90;;;;;;5074549;28;20025;-78
2023/01/09 05:42:13;;;;;;;61.13;24.60;;;6.10;99.90;;;;;;5074469;28;20020;-78
2023/01/09 05:44:38;;;;;;;66.00;27.95;;;6.10;99.90;;;;;;5074633;28;20021;-78
2023/01/09 05:47:04;;;;;;;63.15;27.92;;;6.10;99.90;;;;;;5074307;28;20447;-78
2023/01/09 05:49:30;;;;;;;53.58;24.38;;;6.10;99.90;;;;;;5074736;28;20162;-79
2023/01/09 05:51:55;;;;;;;56.25;24.55;;;6.10;99.90;;;;;;5074485;28;20024;-79
2023/01/09 05:54:21;;;;;;;51.63;23.33;;;6.10;99.90;;;;;;5074223;28;20024;-78
2023/01/09 05:56:47;;;;;;;47.58;19.73;;;6.10;99.90;;;;;;5074341;28;20019;-78
2023/01/09 05:59:12;;;;;;;40.72;18.80;;;6.20;99.90;;;;;;5073077;28;20363;-77
2023/01/09 06:01:38;;;;;;;43.10;18.20;;;6.30;99.90;;;;;;5074290;28;20017;-77
2023/01/09 06:04:04;;;;;;;47.67;19.33;;;6.40;99.90;;;;;;5074025;28;20091;-78
2023/01/09 06:06:30;;;;;;;52.65;20.83;;;6.50;99.90;;;;;;5073983;28;20020;-78
2023/01/09 06:08:55;;;;;;;44.03;20.08;;;6.50;99.90;;;;;;5073188;28;20078;-78
2023/01/09 06:11:21;;;;;;;54.55;23.70;;;6.60;99.90;;;;;;5074561;28;20025;-78
2023/01/09 06:13:47;;;;;;;104.32;42.92;;;6.60;99.90;;;;;;5072850;28;20524;-78
2023/01/09 06:16:12;;;;;;;141.63;51.65;;;6.70;99.90;;;;;;5072839;28;20020;-77
2023/01/09 06:18:38;;;;;;;124.63;50.88;;;6.80;99.90;;;;;;5074411;28;20067;-77
2023/01/09 06:21:04;;;;;;;146.27;59.00;;;6.80;99.90;;;;;;5074270;28;20068;-78
2023/01/09 06:23:30;;;;;;;187.45;65.03;;;6.90;99.90;;;;;;5074203;28;20462;-78
2023/01/09 06:25:55;;;;;;;113.30;42.50;;;7.00;99.90;;;;;;5074103;28;20024;-77
2023/01/09 06:28:21;;;;;;;82.13;34.38;;;7.10;99.90;;;;;;5073948;28;20427;-78
2023/01/09 06:30:51;;;;;;;52.72;24.45;;;7.20;99.90;;;;;;5074178;28;20028;-80
2023/01/09 06:33:17;;;;;;;48.38;24.05;;;7.20;99.90;;;;;;5073963;28;20028;-78
2023/01/09 06:35:42;;;;;;;41.30;20.65;;;7.30;99.90;;;;;;5073839;28;20057;-78
2023/01/09 06:38:08;;;;;;;39.40;18.95;;;7.30;99.90;;;;;;5073654;28;20055;-78
2023/01/09 06:40:34;;;;;;;46.90;20.52;;;7.40;99.90;;;;;;5074015;28;20440;-79
2023/01/09 06:42:59;;;;;;;40.95;20.33;;;7.30;99.90;;;;;;5073672;28;20032;-78
2023/01/09 06:45:25;;;;;;;44.55;22.60;;;7.40;99.90;;;;;;5073532;28;20458;-78
2023/01/09 06:47:51;;;;;;;43.97;22.17;;;7.30;99.90;;;;;;5073948;28;20031;-80
2023/01/09 06:50:16;;;;;;;46.03;21.15;;;7.40;99.90;;;;;;5073945;28;20432;-78
2023/01/09 06:52:42;;;;;;;50.97;20.55;;;7.30;99.90;;;;;;5073800;28;20457;-78
2023/01/09 06:55:08;;;;;;;52.35;22.60;;;7.30;99.90;;;;;;5073696;28;20028;-78
2023/01/09 06:57:34;;;;;;;47.00;21.70;;;7.30;99.90;;;;;;5073828;28;20021;-78
2023/01/09 07:00:00;;;;;;;52.38;22.08;;;7.30;99.90;;;;;;5073727;28;20389;-77
2023/01/09 07:02:25;;;;;;;47.00;21.13;;;7.30;99.90;;;;;;5072142;28;20020;-78
2023/01/09 07:04:51;;;;;;;53.83;25.38;;;7.30;99.90;;;;;;5073807;28;20474;-78
2023/01/09 07:07:18;;;;;;;69.18;26.52;;;7.30;99.90;;;;;;5072832;28;20436;-79
2023/01/09 07:09:44;;;;;;;60.72;26.15;;;7.40;99.90;;;;;;5072852;28;20448;-79
2023/01/09 07:12:09;;;;;;;56.28;25.67;;;7.40;99.90;;;;;;5073981;28;20107;-78
2023/01/09 07:14:35;;;;;;;77.30;31.52;;;7.40;99.90;;;;;;5071975;28;20021;-78
2023/01/09 07:17:01;;;;;;;50.28;22.35;;;7.50;99.90;;;;;;5072846;28;20031;-79
2023/01/09 07:19:26;;;;;;;57.72;24.67;;;7.50;99.90;;;;;;5071997;28;20540;-79
2023/01/09 07:21:52;;;;;;;57.58;24.60;;;7.50;99.90;;;;;;5073252;28;20021;-79
2023/01/09 07:24:18;;;;;;;60.45;25.95;;;7.60;99.90;;;;;;5072968;28;20024;-78
2023/01/09 07:26:43;;;;;;;86.40;29.92;;;7.60;99.90;;;;;;5071990;28;20029;-78
2023/01/09 07:29:09;;;;;;;93.65;36.03;;;7.70;99.90;;;;;;5076003;28;20031;-78
2023/01/09 07:31:35;;;;;;;66.47;29.48;;;7.60;99.90;;;;;;5075433;28;20478;-78
2023/01/09 07:34:00;;;;;;;62.60;26.42;;;7.70;99.90;;;;;;5076868;28;20073;-78
2023/01/09 07:36:26;;;;;;;279.83;102.13;;;7.70;99.90;;;;;;5075871;28;20024;-79
2023/01/09 07:38:52;;;;;;;85.45;39.08;;;7.70;99.90;;;;;;5075831;28;20393;-78
2023/01/09 07:41:17;;;;;;;49.55;22.90;;;7.80;99.90;;;;;;5077170;28;20092;-78
2023/01/09 07:43:43;;;;;;;59.00;23.33;;;7.80;99.90;;;;;;5077161;28;20032;-78
2023/01/09 07:46:09;;;;;;;68.25;27.92;;;7.80;99.90;;;;;;5077244;28;20029;-79
2023/01/09 07:48:34;;;;;;;67.07;25.48;;;7.80;99.90;;;;;;5075721;28;20467;-78
2023/01/09 07:51:00;;;;;;;218.77;78.63;;;7.80;99.90;;;;;;5076468;28;20024;-79
2023/01/09 07:53:26;;;;;;;110.50;42.58;;;7.90;99.90;;;;;;5075697;28;20024;-78
2023/01/09 07:55:52;;;;;;;180.32;69.97;;;7.90;99.90;;;;;;5076931;28;20021;-78
2023/01/09 07:58:17;;;;;;;113.00;45.72;;;7.90;99.90;;;;;;5075433;28;20024;-78
2023/01/09 08:00:43;;;;;;;104.93;43.45;;;8.00;99.90;;;;;;5077153;28;20036;-78
2023/01/09 08:03:09;;;;;;;121.32;42.95;;;8.00;99.90;;;;;;5075414;28;20060;-79
2023/01/09 08:05:34;;;;;;;153.02;49.50;;;8.10;99.90;;;;;;5076803;28;20060;-78
2023/01/09 08:08:00;;;;;;;62.08;25.48;;;8.10;99.90;;;;;;5076757;28;20032;-79
2023/01/09 08:10:26;;;;;;;90.05;31.67;;;8.10;99.90;;;;;;5075546;28;20021;-78
2023/01/09 08:12:52;;;;;;;70.20;28.48;;;8.10;99.90;;;;;;5076523;28;20029;-79
2023/01/09 08:15:18;;;;;;;54.10;23.80;;;8.10;99.90;;;;;;5076341;28;20028;-78
2023/01/09 08:17:45;;;;;;;85.65;34.45;;;8.10;99.90;;;;;;5075238;28;20024;-77
2023/01/09 08:20:12;;;;;;;83.20;34.60;;;8.20;99.90;;;;;;5076246;28;20119;-78
2023/01/09 08:22:41;;;;;;;67.95;28.02;;;8.20;99.90;;;;;;5076158;28;20033;-78
2023/01/09 08:25:07;;;;;;;100.97;43.05;;;8.30;99.90;;;;;;5076348;28;20045;-78
2023/01/09 08:27:33;;;;;;;56.17;28.02;;;8.30;99.90;;;;;;5074626;28;20024;-79
2023/01/09 08:29:59;;;;;;;54.85;22.92;;;8.40;99.90;;;;;;5074950;28;20027;-79
2023/01/09 08:32:25;;;;;;;76.32;33.13;;;8.40;99.90;;;;;;5076513;28;20026;-78
2023/01/09 08:34:51;;;;;;;79.30;38.35;;;8.40;99.90;;;;;;5075165;28;20402;-79
2023/01/09 08:37:17;;;;;;;95.28;41.92;;;8.50;99.90;;;;;;5075864;28;20394;-79
2023/01/09 08:39:42;;;;;;;106.20;47.20;;;8.50;99.90;;;;;;5076453;28;19917;-80
2023/01/09 08:47:36;;;;;;;71.18;34.15;;;8.70;99.90;;;;;;5075680;28;20063;-79
2023/01/09 08:50:03;;;;;;;66.50;31.02;;;8.80;99.90;;;;;;5075698;28;20040;-79
2023/01/09 08:52:29;;;;;;;85.80;42.00;;;8.80;99.90;;;;;;5074610;28;20037;-78
2023/01/09 08:54:56;;;;;;;76.32;40.03;;;8.80;99.90;;;;;;5074431;28;20023;-80
2023/01/09 08:57:21;;;;;;;74.80;34.08;;;8.90;99.90;;;;;;5075897;28;20497;-78
2023/01/09 08:59:47;;;;;;;78.95;34.85;;;8.90;99.90;;;;;;5075722;28;20025;-78
2023/01/09 09:02:13;;;;;;;88.68;38.83;;;8.90;99.90;;;;;;5075324;28;20024;-78
2023/01/09 09:04:39;;;;;;;68.45;32.05;;;8.90;99.90;;;;;;5075332;28;20454;-78
2023/01/09 09:07:05;;;;;;;81.40;33.40;;;9.00;99.90;;;;;;5074311;28;20086;-78
2023/01/09 09:09:30;;;;;;;79.43;35.22;;;9.00;99.90;;;;;;5075389;28;20398;-79
2023/01/09 09:11:56;;;;;;;76.63;33.22;;;9.10;99.90;;;;;;5075344;28;20020;-78
2023/01/09 09:17:06;;;;;;;70.65;32.40;;;9.10;99.90;;;;;;5075324;28;20027;-78
2023/01/09 09:19:31;;;;;;;63.92;30.88;;;9.20;99.90;;;;;;5075157;28;20024;-77
2023/01/09 09:21:57;;;;;;;98.30;43.95;;;9.20;99.90;;;;;;5075143;28;20064;-78
2023/01/09 09:24:23;;;;;;;68.15;30.25;;;9.20;99.90;;;;;;5073796;28;20366;-78
2023/01/09 09:26:48;;;;;;;66.93;29.63;;;9.20;99.90;;;;;;5075469;28;20029;-79
2023/01/09 09:29:14;;;;;;;60.28;26.65;;;9.20;99.90;;;;;;5075007;28;20468;-78
2023/01/09 09:31:39;;;;;;;65.28;31.55;;;9.30;99.90;;;;;;5075184;28;20024;-78
2023/01/09 09:34:06;;;;;;;68.18;32.17;;;9.30;99.90;;;;;;5073765;28;20135;-79
2023/01/09 09:36:32;;;;;;;61.88;26.77;;;9.30;99.90;;;;;;5073764;28;20035;-77
2023/01/09 09:38:58;;;;;;;115.05;45.30;;;9.30;99.90;;;;;;5073678;28;20436;-77
2023/01/09 09:45:08;;;;;;;118.55;51.65;;;9.40;99.90;;;;;;5074487;28;20036;-78
2023/01/09 09:47:52;;;;;;;101.97;45.25;;;9.40;99.90;;;;;;5074791;28;20104;-78
2023/01/09 09:50:55;;;;;;;109.10;46.65;;;9.40;99.90;;;;;;5074546;28;20332;-78
2023/01/09 09:53:36;;;;;;;79.63;37.88;;;9.50;99.90;;;;;;5074716;28;20020;-77
2023/01/09 09:56:03;;;;;;;60.08;28.50;;;9.50;99.90;;;;;;5074634;28;20077;-78
2023/01/09 09:58:39;;;;;;;74.57;35.47;;;9.60;99.90;;;;;;5074801;28;20035;-79
2023/01/09 10:01:06;;;;;;;61.47;30.38;;;9.60;99.90;;;;;;5074541;28;20055;-78
2023/01/09 10:03:53;;;;;;;46.45;25.00;;;9.70;99.90;;;;;;5073482;28;20371;-78
2023/01/09 10:06:29;;;;;;;52.78;25.52;;;9.80;99.90;;;;;;5074286;28;20029;-78
2023/01/09 10:09:04;;;;;;;44.80;23.10;;;9.90;99.90;;;;;;5074093;28;20028;-77
2023/01/09 10:11:56;;;;;;;49.95;24.30;;;10.00;99.90;;;;;;5073082;28;20362;-78
2023/01/09 10:14:22;;;;;;;95.20;45.30;;;10.20;99.90;;;;;;5074289;28;20024;-78
2023/01/09 10:17:09;;;;;;;50.30;24.17;;;10.30;99.90;;;;;;5072978;28;20495;-79
2023/01/09 10:20:05;;;;;;;76.55;37.95;;;10.30;99.90;;;;;;5074078;28;20536;-77
2023/01/09 10:22:36;;;;;;;58.83;28.38;;;10.30;99.90;;;;;;5073897;28;20028;-79
2023/01/09 10:25:30;;;;;;;53.22;24.65;;;10.30;99.90;;;;;;5073989;28;20051;-79
2023/01/09 10:28:20;;;;;;;76.43;39.08;;;10.30;99.90;;;;;;5074231;28;20067;-77
2023/01/09 10:30:48;;;;;;;46.63;21.92;;;10.30;99.90;;;;;;5074481;28;20447;-78
2023/01/09 10:33:35;;;;;;;56.58;28.75;;;10.30;99.90;;;;;;5072608;28;20036;-79
2023/01/09 10:36:13;;;;;;;64.50;29.90;;;10.30;99.90;;;;;;5073958;28;20023;-78
2023/01/09 10:38:43;;;;;;;88.22;44.53;;;10.30;99.90;;;;;;5074042;28;20477;-78
2023/01/09 10:41:20;;;;;;;68.07;30.95;;;10.40;99.90;;;;;;5073860;28;20024;-77
2023/01/09 10:43:52;;;;;;;58.45;28.42;;;10.30;99.90;;;;;;5073621;28;20103;-78
2023/01/09 10:46:26;;;;;;;78.47;37.10;;;10.40;99.90;;;;;;5072431;28;20034;-78
2023/01/09 10:48:58;;;;;;;101.40;48.90;;;10.40;99.90;;;;;;5073710;28;20020;-77
2023/01/09 10:51:50;;;;;;;71.03;32.50;;;10.50;99.90;;;;;;5073994;28;20440;-78
2023/01/09 10:54:20;;;;;;;97.07;39.15;;;10.60;99.90;;;;;;5073406;28;20032;-78
2023/01/09 10:57:01;;;;;;;66.45;32.42;;;10.60;99.90;;;;;;5074019;28;20029;-78
2023/01/09 10:59:26;;;;;;;59.63;27.73;;;10.60;99.90;;;;;;5072707;28;20472;-77
2023/01/09 11:01:52;;;;;;;68.78;33.42;;;10.60;99.90;;;;;;5071973;28;20048;-78
2023/01/09 11:04:25;;;;;;;75.50;35.95;;;10.60;99.90;;;;;;5072743;28;20039;-78
2023/01/09 11:06:58;;;;;;;54.78;25.02;;;10.60;99.90;;;;;;5073447;28;20552;-79
2023/01/09 11:09:24;;;;;;;69.18;33.97;;;10.60;99.90;;;;;;5072477;28;20024;-78
2023/01/09 11:11:50;;;;;;;108.72;51.38;;;10.60;99.90;;;;;;5073356;28;20027;-77
2023/01/09 11:14:32;;;;;;;67.38;34.80;;;10.70;99.90;;;;;;5073474;28;20034;-78
2023/01/09 11:17:01;;;;;;;64.47;30.05;;;10.70;99.90;;;;;;5073409;28;20090;-78
2023/01/09 11:19:27;;;;;;;68.65;31.67;;;10.70;99.90;;;;;;5072210;28;20097;-78
2023/01/09 11:22:16;;;;;;;124.80;55.65;;;10.70;99.90;;;;;;5073669;28;20021;-77
2023/01/09 11:24:42;;;;;;;76.88;37.58;;;10.70;99.90;;;;;;5073339;28;20103;-77
2023/01/09 11:27:13;;;;;;;71.10;33.17;;;10.70;99.90;;;;;;5073377;28;20420;-78
2023/01/09 11:29:39;;;;;;;164.37;78.40;;;10.70;99.90;;;;;;5072027;28;20024;-78
2023/01/09 11:32:18;;;;;;;112.40;49.60;;;10.70;99.90;;;;;;5073400;28;20245;-78
2023/01/09 11:34:45;;;;;;;125.43;57.13;;;10.60;99.90;;;;;;5073528;28;20020;-78
2023/01/09 11:37:14;;;;;;;136.90;61.55;;;10.70;99.90;;;;;;5073234;28;20016;-78
2023/01/09 11:39:46;;;;;;;132.52;55.75;;;10.70;99.90;;;;;;5073116;28;20025;-76
2023/01/09 11:42:49;;;;;;;150.60;68.63;;;10.80;99.90;;;;;;5073202;28;20020;-78
2023/01/09 11:45:17;;;;;;;134.43;53.70;;;10.90;99.90;;;;;;5072952;28;20104;-79
2023/01/09 11:47:43;;;;;;;99.05;42.58;;;11.00;99.90;;;;;;5073312;28;20470;-78
2023/01/09 11:50:19;;;;;;;80.03;38.20;;;11.10;99.90;;;;;;5073386;28;20042;-78
2023/01/09 11:52:46;;;;;;;91.95;36.75;;;11.10;99.90;;;;;;5073262;28;20024;-78
2023/01/09 11:55:16;;;;;;;112.88;49.20;;;11.10;99.90;;;;;;5071835;28;20028;-77
2023/01/09 11:57:42;;;;;;;95.28;43.67;;;11.10;99.90;;;;;;5072819;28;20055;-78
2023/01/09 12:00:27;;;;;;;123.15;53.67;;;11.10;99.90;;;;;;5073174;28;20429;-77
2023/01/09 12:03:12;;;;;;;103.07;47.00;;;11.10;99.90;;;;;;5073162;28;20031;-78
2023/01/09 12:06:05;;;;;;;81.65;39.20;;;11.10;99.90;;;;;;5072985;28;20027;-79
2023/01/09 12:08:49;;;;;;;59.38;28.30;;;11.10;99.90;;;;;;5071855;28;20104;-77
2023/01/09 12:11:40;;;;;;;69.70;30.58;;;11.10;99.90;;;;;;5072910;28;20020;-80
2023/01/09 12:14:33;;;;;;;70.47;33.58;;;11.10;99.90;;;;;;5074104;28;20017;-77
2023/01/09 12:17:38;;;;;;;53.80;26.23;;;11.10;99.90;;;;;;5076259;28;20456;-78
2023/01/09 12:20:33;;;;;;;100.88;42.38;;;11.10;99.90;;;;;;5076341;28;20079;-78
2023/01/09 12:23:02;;;;;;;117.97;45.40;;;11.10;99.90;;;;;;5041544;28;20040;-77
2023/01/09 12:25:34;;;;;;;68.55;31.15;;;11.20;99.90;;;;;;5076315;28;20090;-77
2023/01/09 12:28:11;;;;;;;63.67;31.98;;;11.20;99.90;;;;;;5076006;28;20036;-77
2023/01/09 12:31:06;;;;;;;83.63;40.22;;;11.20;99.90;;;;;;5076441;28;20481;-77
2023/01/09 12:33:38;;;;;;;90.60;41.50;;;11.30;99.90;;;;;;5076368;28;20056;-77
2023/01/09 12:36:31;;;;;;;72.40;32.67;;;11.30;99.90;;;;;;5074846;28;20016;-77
2023/01/09 12:39:27;;;;;;;118.97;69.55;;;11.30;99.90;;;;;;5075782;28;20095;-78
2023/01/09 12:41:58;;;;;;;77.63;36.45;;;11.40;99.90;;;;;;5075809;28;20367;-79
2023/01/09 12:44:33;;;;;;;58.30;30.02;;;11.40;99.90;;;;;;5076064;28;20078;-77
2023/01/09 12:47:21;;;;;;;70.97;35.85;;;11.50;99.90;;;;;;5075869;28;20058;-77
2023/01/09 12:49:59;;;;;;;58.83;28.30;;;11.50;99.90;;;;;;5075957;28;20042;-78
2023/01/09 12:52:47;;;;;;;72.38;37.75;;;11.50;99.90;;;;;;5075844;28;20024;-78
2023/01/09 12:55:19;;;;;;;76.43;38.53;;;11.60;99.90;;;;;;5075946;28;20466;-78
2023/01/09 12:57:50;;;;;;;113.78;47.58;;;11.60;99.90;;;;;;5074491;28;20448;-77
2023/01/09 13:00:36;;;;;;;78.87;42.27;;;11.60;99.90;;;;;;5075607;28;20474;-78
2023/01/09 13:03:30;;;;;;;63.35;32.40;;;11.60;99.90;;;;;;5074414;28;20047;-78